Terminal Aerodrome Forecast
Issued by NWS

Home | Current Version | Previous Version | Text Only | Print | Product List | Glossary On
Versions: 1 2 3 4 5 6 7 8 9 10 11 12 13 14 15 16 17 18 19 20 21 22 23 24 25 26 27
000
FTUS41 KPBZ 251523 AAB
TAFFKL
TAF AMD
KFKL 251523Z 2515/2612 25018G26KT P6SM FEW014 SCT035 OVC045
     FM251800 25010G21KT P6SM SCT250
     FM260600 25006KT P6SM SKC=

USA.gov is the U.S. government's official web portal to all federal, state and local government web resources and services.